sensor_id;sensor_type;location;lat;lon;timestamp;temperature;humidity
61004;DHT22;46889;37.310;13.582;2023-01-29T00:02:03;8.10;99.90
61004;DHT22;46889;37.310;13.582;2023-01-29T00:04:29;8.20;99.90
61004;DHT22;46889;37.310;13.582;2023-01-29T00:06:55;8.10;99.90
61004;DHT22;46889;37.310;13.582;2023-01-29T00:09:21;8.00;99.90
61004;DHT22;46889;37.310;13.582;2023-01-29T00:11:48;8.00;99.90
61004;DHT22;46889;37.310;13.582;2023-01-29T00:14:14;8.00;99.90
61004;DHT22;46889;37.310;13.582;2023-01-29T00:16:39;7.90;99.90
61004;DHT22;46889;37.310;13.582;2023-01-29T00:19:07;7.90;99.90
61004;DHT22;46889;37.310;13.582;2023-01-29T00:21:33;7.90;99.90
61004;DHT22;46889;37.310;13.582;2023-01-29T00:23:59;7.80;99.90
61004;DHT22;46889;37.310;13.582;2023-01-29T00:26:25;7.80;99.90
61004;DHT22;46889;37.310;13.582;2023-01-29T00:28:51;7.80;99.90
61004;DHT22;46889;37.310;13.582;2023-01-29T00:31:18;7.80;99.90
61004;DHT22;46889;37.310;13.582;2023-01-29T00:33:45;7.80;99.90
61004;DHT22;46889;37.310;13.582;2023-01-29T00:36:12;7.90;99.90
61004;DHT22;46889;37.310;13.582;2023-01-29T00:38:38;7.80;99.90
61004;DHT22;46889;37.310;13.582;2023-01-29T00:41:07;7.90;99.90
61004;DHT22;46889;37.310;13.582;2023-01-29T00:43:52;7.90;99.90
61004;DHT22;46889;37.310;13.582;2023-01-29T00:46:36;7.80;99.90
61004;DHT22;46889;37.310;13.582;2023-01-29T00:49:02;7.80;99.90
61004;DHT22;46889;37.310;13.582;2023-01-29T00:51:28;7.80;99.90
61004;DHT22;46889;37.310;13.582;2023-01-29T00:53:54;7.80;99.90
61004;DHT22;46889;37.310;13.582;2023-01-29T00:56:23;7.70;99.90
61004;DHT22;46889;37.310;13.582;2023-01-29T00:58:49;7.70;99.90
61004;DHT22;46889;37.310;13.582;2023-01-29T01:01:15;7.60;99.90
61004;DHT22;46889;37.310;13.582;2023-01-29T01:03:41;7.60;99.90
61004;DHT22;46889;37.310;13.582;2023-01-29T01:06:08;7.60;99.90
61004;DHT22;46889;37.310;13.582;2023-01-29T01:08:34;7.60;99.90
61004;DHT22;46889;37.310;13.582;2023-01-29T01:11:20;7.60;99.90
61004;DHT22;46889;37.310;13.582;2023-01-29T01:13:46;7.60;99.90
61004;DHT22;46889;37.310;13.582;2023-01-29T01:16:13;7.60;99.90
61004;DHT22;46889;37.310;13.582;2023-01-29T01:18:39;7.60;99.90
61004;DHT22;46889;37.310;13.582;2023-01-29T01:21:05;7.60;99.90
61004;DHT22;46889;37.310;13.582;2023-01-29T01:23:31;7.60;99.90
61004;DHT22;46889;37.310;13.582;2023-01-29T01:25:56;7.50;99.90
61004;DHT22;46889;37.310;13.582;2023-01-29T01:28:22;7.40;99.90
61004;DHT22;46889;37.310;13.582;2023-01-29T01:30:50;7.40;99.90
61004;DHT22;46889;37.310;13.582;2023-01-29T01:33:15;7.30;99.90
61004;DHT22;46889;37.310;13.582;2023-01-29T01:35:41;7.30;99.90
61004;DHT22;46889;37.310;13.582;2023-01-29T01:38:07;7.30;99.90
61004;DHT22;46889;37.310;13.582;2023-01-29T01:40:33;7.30;99.90
61004;DHT22;46889;37.310;13.582;2023-01-29T01:42:59;7.30;99.90
61004;DHT22;46889;37.310;13.582;2023-01-29T01:45:30;7.40;99.90
61004;DHT22;46889;37.310;13.582;2023-01-29T01:48:10;7.50;99.90
61004;DHT22;46889;37.310;13.582;2023-01-29T01:53:07;7.50;99.90
61004;DHT22;46889;37.310;13.582;2023-01-29T01:55:34;7.50;99.90
61004;DHT22;46889;37.310;13.582;2023-01-29T01:58:36;7.50;99.90
61004;DHT22;46889;37.310;13.582;2023-01-29T02:00:53;7.50;99.90
61004;DHT22;46889;37.310;13.582;2023-01-29T02:03:20;7.50;99.90
61004;DHT22;46889;37.310;13.582;2023-01-29T02:06:05;7.50;99.90
61004;DHT22;46889;37.310;13.582;2023-01-29T02:11:53;7.50;99.90
61004;DHT22;46889;37.310;13.582;2023-01-29T02:14:20;7.50;99.90
61004;DHT22;46889;37.310;13.582;2023-01-29T02:16:46;7.60;99.90
61004;DHT22;46889;37.310;13.582;2023-01-29T02:19:16;7.60;99.90
61004;DHT22;46889;37.310;13.582;2023-01-29T02:24:20;7.60;99.90
61004;DHT22;46889;37.310;13.582;2023-01-29T02:27:08;7.60;99.90
61004;DHT22;46889;37.310;13.582;2023-01-29T02:34:58;7.30;99.90
61004;DHT22;46889;37.310;13.582;2023-01-29T02:38:08;7.30;99.90
61004;DHT22;46889;37.310;13.582;2023-01-29T02:40:40;7.20;99.90
61004;DHT22;46889;37.310;13.582;2023-01-29T02:43:13;6.90;99.90
61004;DHT22;46889;37.310;13.582;2023-01-29T02:45:49;6.80;99.90
61004;DHT22;46889;37.310;13.582;2023-01-29T02:48:18;6.70;99.90
61004;DHT22;46889;37.310;13.582;2023-01-29T02:51:01;6.60;99.90
61004;DHT22;46889;37.310;13.582;2023-01-29T02:53:35;6.60;99.90
61004;DHT22;46889;37.310;13.582;2023-01-29T02:56:07;6.60;99.90
61004;DHT22;46889;37.310;13.582;2023-01-29T02:58:40;6.60;99.90
61004;DHT22;46889;37.310;13.582;2023-01-29T03:01:26;6.60;99.90
61004;DHT22;46889;37.310;13.582;2023-01-29T03:04:06;6.60;99.90
61004;DHT22;46889;37.310;13.582;2023-01-29T03:06:40;6.60;99.90
61004;DHT22;46889;37.310;13.582;2023-01-29T03:09:08;6.60;99.90
61004;DHT22;46889;37.310;13.582;2023-01-29T03:11:37;6.60;99.90
61004;DHT22;46889;37.310;13.582;2023-01-29T03:14:06;6.60;99.90
61004;DHT22;46889;37.310;13.582;2023-01-29T03:16:36;6.60;99.90
61004;DHT22;46889;37.310;13.582;2023-01-29T03:19:11;6.60;99.90
61004;DHT22;46889;37.310;13.582;2023-01-29T03:21:39;6.70;99.90
61004;DHT22;46889;37.310;13.582;2023-01-29T03:24:28;6.70;99.90
61004;DHT22;46889;37.310;13.582;2023-01-29T03:27:13;6.70;99.90
61004;DHT22;46889;37.310;13.582;2023-01-29T03:29:58;6.70;99.90
61004;DHT22;46889;37.310;13.582;2023-01-29T03:32:43;6.70;99.90
61004;DHT22;46889;37.310;13.582;2023-01-29T03:35:09;6.80;99.90
61004;DHT22;46889;37.310;13.582;2023-01-29T03:37:39;6.80;99.90
61004;DHT22;46889;37.310;13.582;2023-01-29T03:40:06;6.80;99.90
61004;DHT22;46889;37.310;13.582;2023-01-29T03:42:43;6.90;99.90
61004;DHT22;46889;37.310;13.582;2023-01-29T03:45:15;6.90;99.90
61004;DHT22;46889;37.310;13.582;2023-01-29T03:52:39;7.00;99.90
61004;DHT22;46889;37.310;13.582;2023-01-29T03:55:09;7.10;99.90
61004;DHT22;46889;37.310;13.582;2023-01-29T03:57:41;7.10;99.90
61004;DHT22;46889;37.310;13.582;2023-01-29T04:00:15;7.20;99.90
61004;DHT22;46889;37.310;13.582;2023-01-29T04:05:27;7.30;99.90
61004;DHT22;46889;37.310;13.582;2023-01-29T04:07:56;7.30;99.90
61004;DHT22;46889;37.310;13.582;2023-01-29T04:10:26;7.30;99.90
61004;DHT22;46889;37.310;13.582;2023-01-29T04:12:59;7.50;99.90
61004;DHT22;46889;37.310;13.582;2023-01-29T04:15:27;7.50;99.90
61004;DHT22;46889;37.310;13.582;2023-01-29T04:17:54;7.40;99.90
61004;DHT22;46889;37.310;13.582;2023-01-29T04:20:21;7.30;99.90
61004;DHT22;46889;37.310;13.582;2023-01-29T04:22:48;7.30;99.90
61004;DHT22;46889;37.310;13.582;2023-01-29T04:25:21;7.30;99.90
61004;DHT22;46889;37.310;13.582;2023-01-29T04:28:02;7.20;99.90
61004;DHT22;46889;37.310;13.582;2023-01-29T04:36:00;7.10;99.90
61004;DHT22;46889;37.310;13.582;2023-01-29T04:46:10;7.00;99.90
61004;DHT22;46889;37.310;13.582;2023-01-29T04:53:49;6.90;99.90
61004;DHT22;46889;37.310;13.582;2023-01-29T04:56:27;6.90;99.90
61004;DHT22;46889;37.310;13.582;2023-01-29T04:58:56;6.90;99.90
61004;DHT22;46889;37.310;13.582;2023-01-29T05:01:24;6.90;99.90
61004;DHT22;46889;37.310;13.582;2023-01-29T05:03:53;6.90;99.90
61004;DHT22;46889;37.310;13.582;2023-01-29T05:06:19;7.00;99.90
61004;DHT22;46889;37.310;13.582;2023-01-29T05:08:45;7.00;99.90
61004;DHT22;46889;37.310;13.582;2023-01-29T05:11:12;7.00;99.90
61004;DHT22;46889;37.310;13.582;2023-01-29T05:13:38;7.00;99.90
61004;DHT22;46889;37.310;13.582;2023-01-29T05:18:31;7.10;99.90
61004;DHT22;46889;37.310;13.582;2023-01-29T05:20:57;7.10;99.90
61004;DHT22;46889;37.310;13.582;2023-01-29T05:23:23;7.00;99.90
61004;DHT22;46889;37.310;13.582;2023-01-29T05:25:49;6.90;99.90
61004;DHT22;46889;37.310;13.582;2023-01-29T05:28:16;6.80;99.90
61004;DHT22;46889;37.310;13.582;2023-01-29T05:30:43;6.80;99.90
61004;DHT22;46889;37.310;13.582;2023-01-29T05:33:11;6.80;99.90
61004;DHT22;46889;37.310;13.582;2023-01-29T05:35:37;6.70;99.90
61004;DHT22;46889;37.310;13.582;2023-01-29T05:38:03;6.70;99.90
61004;DHT22;46889;37.310;13.582;2023-01-29T05:40:29;6.70;99.90
61004;DHT22;46889;37.310;13.582;2023-01-29T05:42:55;6.70;99.90
61004;DHT22;46889;37.310;13.582;2023-01-29T05:45:20;6.70;99.90
61004;DHT22;46889;37.310;13.582;2023-01-29T05:47:46;6.80;99.90
61004;DHT22;46889;37.310;13.582;2023-01-29T05:50:12;6.90;99.90
61004;DHT22;46889;37.310;13.582;2023-01-29T05:52:39;7.00;99.90
61004;DHT22;46889;37.310;13.582;2023-01-29T05:55:05;7.10;99.90
61004;DHT22;46889;37.310;13.582;2023-01-29T05:57:31;7.00;99.90
61004;DHT22;46889;37.310;13.582;2023-01-29T05:59:56;6.90;99.90
61004;DHT22;46889;37.310;13.582;2023-01-29T06:02:22;6.90;99.90
61004;DHT22;46889;37.310;13.582;2023-01-29T06:04:49;6.90;99.90
61004;DHT22;46889;37.310;13.582;2023-01-29T06:07:16;6.90;99.90
61004;DHT22;46889;37.310;13.582;2023-01-29T06:09:41;7.00;99.90
61004;DHT22;46889;37.310;13.582;2023-01-29T06:12:07;7.10;99.90
61004;DHT22;46889;37.310;13.582;2023-01-29T06:14:33;7.20;99.90
61004;DHT22;46889;37.310;13.582;2023-01-29T06:16:59;7.20;99.90
61004;DHT22;46889;37.310;13.582;2023-01-29T06:19:24;7.20;99.90
61004;DHT22;46889;37.310;13.582;2023-01-29T06:21:50;7.10;99.90
61004;DHT22;46889;37.310;13.582;2023-01-29T06:24:16;7.00;99.90
61004;DHT22;46889;37.310;13.582;2023-01-29T06:26:42;6.90;99.90
61004;DHT22;46889;37.310;13.582;2023-01-29T06:29:08;6.90;99.90
61004;DHT22;46889;37.310;13.582;2023-01-29T06:31:33;6.90;99.90
61004;DHT22;46889;37.310;13.582;2023-01-29T06:33:59;7.10;99.90
61004;DHT22;46889;37.310;13.582;2023-01-29T06:36:25;7.60;99.90
61004;DHT22;46889;37.310;13.582;2023-01-29T06:38:51;8.10;99.90
61004;DHT22;46889;37.310;13.582;2023-01-29T06:41:17;8.40;99.90
61004;DHT22;46889;37.310;13.582;2023-01-29T06:43:43;8.60;99.90
61004;DHT22;46889;37.310;13.582;2023-01-29T06:46:10;8.60;99.90
61004;DHT22;46889;37.310;13.582;2023-01-29T06:48:35;8.80;99.90
61004;DHT22;46889;37.310;13.582;2023-01-29T06:51:02;8.90;99.90
61004;DHT22;46889;37.310;13.582;2023-01-29T06:53:28;9.10;99.90
61004;DHT22;46889;37.310;13.582;2023-01-29T06:55:54;9.40;99.90
61004;DHT22;46889;37.310;13.582;2023-01-29T06:58:20;9.90;99.90
61004;DHT22;46889;37.310;13.582;2023-01-29T07:00:46;10.20;99.90
61004;DHT22;46889;37.310;13.582;2023-01-29T07:03:12;10.50;99.90
61004;DHT22;46889;37.310;13.582;2023-01-29T07:05:38;10.70;99.90
61004;DHT22;46889;37.310;13.582;2023-01-29T07:08:04;10.60;99.90
61004;DHT22;46889;37.310;13.582;2023-01-29T07:10:30;10.40;99.90
61004;DHT22;46889;37.310;13.582;2023-01-29T07:12:57;10.60;99.90
61004;DHT22;46889;37.310;13.582;2023-01-29T07:15:23;10.80;99.90
61004;DHT22;46889;37.310;13.582;2023-01-29T07:20:22;11.00;99.90
61004;DHT22;46889;37.310;13.582;2023-01-29T07:22:48;11.10;99.90
61004;DHT22;46889;37.310;13.582;2023-01-29T07:25:13;11.10;99.90
61004;DHT22;46889;37.310;13.582;2023-01-29T07:27:39;10.90;99.90
61004;DHT22;46889;37.310;13.582;2023-01-29T07:30:05;11.20;99.90
61004;DHT22;46889;37.310;13.582;2023-01-29T07:32:31;11.80;99.90
61004;DHT22;46889;37.310;13.582;2023-01-29T07:34:57;11.70;99.90
61004;DHT22;46889;37.310;13.582;2023-01-29T07:37:23;11.60;99.90
61004;DHT22;46889;37.310;13.582;2023-01-29T07:39:48;12.10;99.90
61004;DHT22;46889;37.310;13.582;2023-01-29T07:42:14;11.60;99.90
61004;DHT22;46889;37.310;13.582;2023-01-29T07:44:40;11.20;99.90
61004;DHT22;46889;37.310;13.582;2023-01-29T07:47:06;11.20;99.90
61004;DHT22;46889;37.310;13.582;2023-01-29T07:49:32;11.70;99.90
61004;DHT22;46889;37.310;13.582;2023-01-29T07:51:57;11.80;99.90
61004;DHT22;46889;37.310;13.582;2023-01-29T07:54:23;12.30;99.90
61004;DHT22;46889;37.310;13.582;2023-01-29T07:56:49;12.70;99.90
61004;DHT22;46889;37.310;13.582;2023-01-29T07:59:15;12.40;99.90
61004;DHT22;46889;37.310;13.582;2023-01-29T08:01:41;11.80;99.90
61004;DHT22;46889;37.310;13.582;2023-01-29T08:04:13;11.40;99.90
61004;DHT22;46889;37.310;13.582;2023-01-29T08:06:39;11.10;99.90
61004;DHT22;46889;37.310;13.582;2023-01-29T08:09:05;10.80;99.90
61004;DHT22;46889;37.310;13.582;2023-01-29T08:11:31;10.80;99.90
61004;DHT22;46889;37.310;13.582;2023-01-29T08:13:57;11.10;99.90
61004;DHT22;46889;37.310;13.582;2023-01-29T08:16:23;11.20;99.90
61004;DHT22;46889;37.310;13.582;2023-01-29T08:18:49;11.10;99.90
61004;DHT22;46889;37.310;13.582;2023-01-29T08:21:14;11.30;99.90
61004;DHT22;46889;37.310;13.582;2023-01-29T08:23:40;11.40;99.90
61004;DHT22;46889;37.310;13.582;2023-01-29T08:26:06;11.30;99.90
61004;DHT22;46889;37.310;13.582;2023-01-29T08:28:32;11.10;99.90
61004;DHT22;46889;37.310;13.582;2023-01-29T08:30:59;11.10;99.90
61004;DHT22;46889;37.310;13.582;2023-01-29T08:33:26;11.00;99.90
61004;DHT22;46889;37.310;13.582;2023-01-29T08:35:53;11.10;99.90
61004;DHT22;46889;37.310;13.582;2023-01-29T08:38:19;11.10;99.90
61004;DHT22;46889;37.310;13.582;2023-01-29T08:40:45;11.10;99.90
61004;DHT22;46889;37.310;13.582;2023-01-29T08:43:11;11.10;99.90
61004;DHT22;46889;37.310;13.582;2023-01-29T08:45:39;11.10;99.90
61004;DHT22;46889;37.310;13.582;2023-01-29T08:48:05;11.00;99.90
61004;DHT22;46889;37.310;13.582;2023-01-29T08:50:31;11.10;99.90
61004;DHT22;46889;37.310;13.582;2023-01-29T08:53:01;11.10;99.90
61004;DHT22;46889;37.310;13.582;2023-01-29T08:55:27;11.00;99.90
61004;DHT22;46889;37.310;13.582;2023-01-29T08:57:54;11.10;99.90
61004;DHT22;46889;37.310;13.582;2023-01-29T09:00:21;11.20;99.90
61004;DHT22;46889;37.310;13.582;2023-01-29T09:02:48;11.40;99.90
61004;DHT22;46889;37.310;13.582;2023-01-29T09:05:14;11.40;99.90
61004;DHT22;46889;37.310;13.582;2023-01-29T09:07:39;11.60;99.90
61004;DHT22;46889;37.310;13.582;2023-01-29T09:10:06;11.70;99.90
61004;DHT22;46889;37.310;13.582;2023-01-29T09:12:32;11.90;99.90
61004;DHT22;46889;37.310;13.582;2023-01-29T09:14:58;12.10;99.90
61004;DHT22;46889;37.310;13.582;2023-01-29T09:17:23;12.10;99.90
61004;DHT22;46889;37.310;13.582;2023-01-29T09:19:49;12.10;99.90
61004;DHT22;46889;37.310;13.582;2023-01-29T09:22:17;12.30;99.90
61004;DHT22;46889;37.310;13.582;2023-01-29T09:24:43;12.50;99.90
61004;DHT22;46889;37.310;13.582;2023-01-29T09:27:09;12.50;99.90
61004;DHT22;46889;37.310;13.582;2023-01-29T09:29:35;12.70;99.90
61004;DHT22;46889;37.310;13.582;2023-01-29T09:32:04;12.80;99.90
61004;DHT22;46889;37.310;13.582;2023-01-29T09:34:30;13.00;99.90
61004;DHT22;46889;37.310;13.582;2023-01-29T09:36:57;13.30;99.90
61004;DHT22;46889;37.310;13.582;2023-01-29T09:39:23;13.50;99.90
61004;DHT22;46889;37.310;13.582;2023-01-29T09:41:55;13.20;99.90
61004;DHT22;46889;37.310;13.582;2023-01-29T09:44:44;13.30;99.90
61004;DHT22;46889;37.310;13.582;2023-01-29T09:47:13;13.60;99.90
61004;DHT22;46889;37.310;13.582;2023-01-29T09:49:41;13.40;99.90
61004;DHT22;46889;37.310;13.582;2023-01-29T09:52:18;13.40;99.90
61004;DHT22;46889;37.310;13.582;2023-01-29T09:57:16;13.50;99.90
61004;DHT22;46889;37.310;13.582;2023-01-29T09:59:43;13.80;99.90
61004;DHT22;46889;37.310;13.582;2023-01-29T10:02:58;14.10;99.90
61004;DHT22;46889;37.310;13.582;2023-01-29T10:15:07;14.40;99.90
61004;DHT22;46889;37.310;13.582;2023-01-29T10:17:45;14.70;99.90
61004;DHT22;46889;37.310;13.582;2023-01-29T10:25:42;15.30;99.90
61004;DHT22;46889;37.310;13.582;2023-01-29T10:28:20;15.00;99.90
61004;DHT22;46889;37.310;13.582;2023-01-29T10:30:48;14.90;99.90
61004;DHT22;46889;37.310;13.582;2023-01-29T10:33:21;15.10;99.90
61004;DHT22;46889;37.310;13.582;2023-01-29T10:35:51;15.30;99.90
61004;DHT22;46889;37.310;13.582;2023-01-29T10:38:27;15.50;99.90
61004;DHT22;46889;37.310;13.582;2023-01-29T10:41:18;15.50;99.90
61004;DHT22;46889;37.310;13.582;2023-01-29T10:43:53;15.30;99.90
61004;DHT22;46889;37.310;13.582;2023-01-29T10:46:35;15.30;99.90
61004;DHT22;46889;37.310;13.582;2023-01-29T10:49:22;15.50;99.90
61004;DHT22;46889;37.310;13.582;2023-01-29T10:54:21;15.60;99.90
61004;DHT22;46889;37.310;13.582;2023-01-29T10:56:59;15.80;99.90
61004;DHT22;46889;37.310;13.582;2023-01-29T11:02:16;16.00;99.90
61004;DHT22;46889;37.310;13.582;2023-01-29T11:04:42;16.10;99.90
61004;DHT22;46889;37.310;13.582;2023-01-29T11:07:08;16.10;99.90
61004;DHT22;46889;37.310;13.582;2023-01-29T11:09:36;16.10;99.90
61004;DHT22;46889;37.310;13.582;2023-01-29T11:12:12;16.20;99.90
61004;DHT22;46889;37.310;13.582;2023-01-29T11:17:04;16.00;99.90
61004;DHT22;46889;37.310;13.582;2023-01-29T11:19:40;15.90;99.90
61004;DHT22;46889;37.310;13.582;2023-01-29T11:22:16;16.00;99.90
61004;DHT22;46889;37.310;13.582;2023-01-29T11:24:42;16.10;99.90
61004;DHT22;46889;37.310;13.582;2023-01-29T11:27:13;16.20;99.90
61004;DHT22;46889;37.310;13.582;2023-01-29T11:29:42;16.10;99.90
61004;DHT22;46889;37.310;13.582;2023-01-29T11:32:28;16.10;99.90
61004;DHT22;46889;37.310;13.582;2023-01-29T11:35:00;16.00;99.90
61004;DHT22;46889;37.310;13.582;2023-01-29T11:37:34;16.10;99.90
61004;DHT22;46889;37.310;13.582;2023-01-29T11:40:00;16.00;99.90
61004;DHT22;46889;37.310;13.582;2023-01-29T11:42:29;16.00;99.90
61004;DHT22;46889;37.310;13.582;2023-01-29T11:44:56;15.80;99.90
61004;DHT22;46889;37.310;13.582;2023-01-29T11:47:25;16.00;99.90
61004;DHT22;46889;37.310;13.582;2023-01-29T11:49:52;16.00;99.90
61004;DHT22;46889;37.310;13.582;2023-01-29T11:52:24;15.90;99.90
61004;DHT22;46889;37.310;13.582;2023-01-29T11:54:53;15.90;99.90
61004;DHT22;46889;37.310;13.582;2023-01-29T11:57:21;16.10;99.90
61004;DHT22;46889;37.310;13.582;2023-01-29T11:59:49;16.00;99.90
61004;DHT22;46889;37.310;13.582;2023-01-29T12:04:41;16.30;99.90
61004;DHT22;46889;37.310;13.582;2023-01-29T12:07:10;16.30;99.90
61004;DHT22;46889;37.310;13.582;2023-01-29T12:09:37;16.00;99.90
61004;DHT22;46889;37.310;13.582;2023-01-29T12:17:32;15.50;99.90
61004;DHT22;46889;37.310;13.582;2023-01-29T12:20:03;15.60;99.90
61004;DHT22;46889;37.310;13.582;2023-01-29T12:25:29;15.60;99.90
61004;DHT22;46889;37.310;13.582;2023-01-29T12:30:43;15.90;99.90
61004;DHT22;46889;37.310;13.582;2023-01-29T12:33:28;15.90;99.90
61004;DHT22;46889;37.310;13.582;2023-01-29T12:36:03;16.20;99.90
61004;DHT22;46889;37.310;13.582;2023-01-29T12:38:30;16.00;99.90
61004;DHT22;46889;37.310;13.582;2023-01-29T12:40:59;16.20;99.90
61004;DHT22;46889;37.310;13.582;2023-01-29T12:45:55;16.20;99.90
61004;DHT22;46889;37.310;13.582;2023-01-29T12:48:26;16.20;99.90
61004;DHT22;46889;37.310;13.582;2023-01-29T12:50:53;16.30;99.90
61004;DHT22;46889;37.310;13.582;2023-01-29T12:56:25;16.50;99.90
61004;DHT22;46889;37.310;13.582;2023-01-29T12:58:53;16.00;99.90
61004;DHT22;46889;37.310;13.582;2023-01-29T13:01:26;16.00;99.90
61004;DHT22;46889;37.310;13.582;2023-01-29T13:06:27;16.20;99.90
61004;DHT22;46889;37.310;13.582;2023-01-29T13:08:54;16.10;99.90
61004;DHT22;46889;37.310;13.582;2023-01-29T13:14:00;15.70;99.90
61004;DHT22;46889;37.310;13.582;2023-01-29T13:16:39;15.60;99.90
61004;DHT22;46889;37.310;13.582;2023-01-29T13:19:26;15.80;99.90
61004;DHT22;46889;37.310;13.582;2023-01-29T13:21:53;15.70;99.90
61004;DHT22;46889;37.310;13.582;2023-01-29T13:24:20;15.90;99.90
61004;DHT22;46889;37.310;13.582;2023-01-29T13:26:47;15.90;99.90
61004;DHT22;46889;37.310;13.582;2023-01-29T13:29:23;16.10;99.90
61004;DHT22;46889;37.310;13.582;2023-01-29T13:32:08;16.30;99.90
61004;DHT22;46889;37.310;13.582;2023-01-29T13:34:44;16.00;99.90
61004;DHT22;46889;37.310;13.582;2023-01-29T13:37:15;16.00;99.90
61004;DHT22;46889;37.310;13.582;2023-01-29T13:39:49;15.90;99.90
61004;DHT22;46889;37.310;13.582;2023-01-29T13:42:18;15.70;99.90
61004;DHT22;46889;37.310;13.582;2023-01-29T13:44:51;15.70;99.90
61004;DHT22;46889;37.310;13.582;2023-01-29T13:47:31;15.70;99.90
61004;DHT22;46889;37.310;13.582;2023-01-29T13:55:07;16.20;99.90
61004;DHT22;46889;37.310;13.582;2023-01-29T14:00:53;16.30;99.90
61004;DHT22;46889;37.310;13.582;2023-01-29T14:10:28;16.20;99.90
61004;DHT22;46889;37.310;13.582;2023-01-29T14:15:36;16.00;99.90
61004;DHT22;46889;37.310;13.582;2023-01-29T14:20:39;16.00;99.90
61004;DHT22;46889;37.310;13.582;2023-01-29T14:23:06;16.10;99.90
61004;DHT22;46889;37.310;13.582;2023-01-29T14:25:33;16.00;99.90
61004;DHT22;46889;37.310;13.582;2023-01-29T14:28:01;15.70;99.90
61004;DHT22;46889;37.310;13.582;2023-01-29T14:30:31;15.80;99.90
61004;DHT22;46889;37.310;13.582;2023-01-29T14:32:58;15.90;99.90
61004;DHT22;46889;37.310;13.582;2023-01-29T14:35:28;16.10;99.90
61004;DHT22;46889;37.310;13.582;2023-01-29T14:37:59;16.10;99.90
61004;DHT22;46889;37.310;13.582;2023-01-29T14:40:26;16.10;99.90
61004;DHT22;46889;37.310;13.582;2023-01-29T14:42:55;16.00;99.90
61004;DHT22;46889;37.310;13.582;2023-01-29T14:45:23;16.00;99.90
61004;DHT22;46889;37.310;13.582;2023-01-29T14:47:51;15.90;99.90
61004;DHT22;46889;37.310;13.582;2023-01-29T14:52:43;16.00;99.90
61004;DHT22;46889;37.310;13.582;2023-01-29T14:55:16;16.00;99.90
61004;DHT22;46889;37.310;13.582;2023-01-29T14:57:43;16.00;99.90
61004;DHT22;46889;37.310;13.582;2023-01-29T15:00:28;15.80;99.90
61004;DHT22;46889;37.310;13.582;2023-01-29T15:02:55;15.70;99.90
61004;DHT22;46889;37.310;13.582;2023-01-29T15:05:25;15.70;99.90
61004;DHT22;46889;37.310;13.582;2023-01-29T15:08:11;15.70;99.90
61004;DHT22;46889;37.310;13.582;2023-01-29T15:10:53;15.50;99.90
61004;DHT22;46889;37.310;13.582;2023-01-29T15:13:47;15.60;99.90
61004;DHT22;46889;37.310;13.582;2023-01-29T15:16:16;15.70;99.90
61004;DHT22;46889;37.310;13.582;2023-01-29T15:18:43;15.60;99.90
61004;DHT22;46889;37.310;13.582;2023-01-29T15:21:11;15.60;99.90
61004;DHT22;46889;37.310;13.582;2023-01-29T15:23:38;15.60;99.90
61004;DHT22;46889;37.310;13.582;2023-01-29T15:26:06;15.50;99.90
61004;DHT22;46889;37.310;13.582;2023-01-29T15:28:33;15.60;99.90
61004;DHT22;46889;37.310;13.582;2023-01-29T15:31:03;15.60;99.90
61004;DHT22;46889;37.310;13.582;2023-01-29T15:33:29;15.60;99.90
61004;DHT22;46889;37.310;13.582;2023-01-29T15:35:59;15.50;99.90
61004;DHT22;46889;37.310;13.582;2023-01-29T15:38:25;15.40;99.90
61004;DHT22;46889;37.310;13.582;2023-01-29T15:40:55;15.40;99.90
61004;DHT22;46889;37.310;13.582;2023-01-29T15:43:34;15.30;99.90
61004;DHT22;46889;37.310;13.582;2023-01-29T15:46:04;15.20;99.90
61004;DHT22;46889;37.310;13.582;2023-01-29T15:48:32;15.00;99.90
61004;DHT22;46889;37.310;13.582;2023-01-29T15:50:59;14.90;99.90
61004;DHT22;46889;37.310;13.582;2023-01-29T15:53:33;14.80;99.90
61004;DHT22;46889;37.310;13.582;2023-01-29T15:56:00;14.60;99.90
61004;DHT22;46889;37.310;13.582;2023-01-29T15:58:29;14.60;99.90
61004;DHT22;46889;37.310;13.582;2023-01-29T16:00:56;14.60;99.90
61004;DHT22;46889;37.310;13.582;2023-01-29T16:03:23;14.60;99.90
61004;DHT22;46889;37.310;13.582;2023-01-29T16:05:50;14.50;99.90
61004;DHT22;46889;37.310;13.582;2023-01-29T16:08:32;14.40;99.90
61004;DHT22;46889;37.310;13.582;2023-01-29T16:10:59;14.40;99.90
61004;DHT22;46889;37.310;13.582;2023-01-29T16:13:29;14.20;99.90
61004;DHT22;46889;37.310;13.582;2023-01-29T16:15:57;14.10;99.90
61004;DHT22;46889;37.310;13.582;2023-01-29T16:18:27;14.00;99.90
61004;DHT22;46889;37.310;13.582;2023-01-29T16:20:53;13.80;99.90
61004;DHT22;46889;37.310;13.582;2023-01-29T16:23:23;13.60;99.90
61004;DHT22;46889;37.310;13.582;2023-01-29T16:25:49;13.40;99.90
61004;DHT22;46889;37.310;13.582;2023-01-29T16:28:16;13.20;99.90
61004;DHT22;46889;37.310;13.582;2023-01-29T16:30:43;13.00;99.90
61004;DHT22;46889;37.310;13.582;2023-01-29T16:33:13;12.90;99.90
61004;DHT22;46889;37.310;13.582;2023-01-29T16:35:39;12.80;99.90
61004;DHT22;46889;37.310;13.582;2023-01-29T16:38:18;12.70;99.90
61004;DHT22;46889;37.310;13.582;2023-01-29T16:46:19;12.40;99.90
61004;DHT22;46889;37.310;13.582;2023-01-29T16:48:45;12.40;99.90
61004;DHT22;46889;37.310;13.582;2023-01-29T16:51:12;12.30;99.90
61004;DHT22;46889;37.310;13.582;2023-01-29T16:53:39;12.20;99.90
61004;DHT22;46889;37.310;13.582;2023-01-29T16:56:06;12.20;99.90
61004;DHT22;46889;37.310;13.582;2023-01-29T16:58:33;12.10;99.90
61004;DHT22;46889;37.310;13.582;2023-01-29T17:01:00;12.10;99.90
61004;DHT22;46889;37.310;13.582;2023-01-29T17:03:26;12.10;99.90
61004;DHT22;46889;37.310;13.582;2023-01-29T17:05:53;12.10;99.90
61004;DHT22;46889;37.310;13.582;2023-01-29T17:10:46;12.00;99.90
61004;DHT22;46889;37.310;13.582;2023-01-29T17:16:00;11.90;99.90
61004;DHT22;46889;37.310;13.582;2023-01-29T17:18:29;11.80;99.90
61004;DHT22;46889;37.310;13.582;2023-01-29T17:20:55;11.80;99.90
61004;DHT22;46889;37.310;13.582;2023-01-29T17:23:21;11.80;99.90
61004;DHT22;46889;37.310;13.582;2023-01-29T17:25:47;11.70;99.90
61004;DHT22;46889;37.310;13.582;2023-01-29T17:28:14;11.60;99.90
61004;DHT22;46889;37.310;13.582;2023-01-29T17:30:41;11.70;99.90
61004;DHT22;46889;37.310;13.582;2023-01-29T17:33:14;11.60;99.90
61004;DHT22;46889;37.310;13.582;2023-01-29T17:35:41;11.60;99.90
61004;DHT22;46889;37.310;13.582;2023-01-29T17:38:11;11.60;99.90
61004;DHT22;46889;37.310;13.582;2023-01-29T17:40:41;11.60;99.90
61004;DHT22;46889;37.310;13.582;2023-01-29T17:43:08;11.50;99.90
61004;DHT22;46889;37.310;13.582;2023-01-29T17:45:36;11.50;99.90